createdAt,value
2022-11-26T00:01:41.836Z,42.80
2022-11-26T00:04:08.263Z,42.30
2022-11-26T00:06:34.724Z,42.30
2022-11-26T00:09:01.218Z,42.90
2022-11-26T00:11:27.641Z,42.90
2022-11-26T00:13:54.090Z,42.90
2022-11-26T00:16:20.560Z,42.90
2022-11-26T00:18:47.000Z,42.90
2022-11-26T00:21:13.446Z,42.70
2022-11-26T00:23:39.896Z,42.80
2022-11-26T00:26:06.408Z,42.70
2022-11-26T00:28:32.852Z,42.20
2022-11-26T00:30:59.292Z,42.80
2022-11-26T00:33:25.758Z,42.30
2022-11-26T00:35:52.231Z,42.80
2022-11-26T00:38:18.659Z,42.80
2022-11-26T00:40:45.078Z,42.80
2022-11-26T00:43:11.522Z,42.20
2022-11-26T00:45:38.030Z,42.80
2022-11-26T00:48:04.593Z,42.70
2022-11-26T00:50:31.021Z,42.20
2022-11-26T00:52:57.478Z,42.20
2022-11-26T00:55:23.907Z,42.70
2022-11-26T00:57:50.388Z,42.20
2022-11-26T01:00:16.845Z,42.70
2022-11-26T01:02:43.388Z,42.70
2022-11-26T01:05:09.833Z,42.70
2022-11-26T01:07:36.345Z,42.70
2022-11-26T01:10:02.815Z,42.80
2022-11-26T01:12:29.236Z,42.20
2022-11-26T01:14:55.661Z,42.70
2022-11-26T01:17:22.075Z,42.70
2022-11-26T01:19:48.497Z,42.20
2022-11-26T01:22:14.951Z,42.80
2022-11-26T01:24:41.417Z,42.80
2022-11-26T01:27:07.887Z,42.60
2022-11-26T01:29:34.327Z,42.70
2022-11-26T01:32:00.847Z,42.70
2022-11-26T01:34:27.311Z,42.30
2022-11-26T01:36:53.799Z,42.70
2022-11-26T01:39:20.262Z,42.80
2022-11-26T01:41:46.731Z,42.70
2022-11-26T01:44:13.152Z,42.10
2022-11-26T01:46:39.597Z,42.80
2022-11-26T01:49:06.034Z,42.50
2022-11-26T01:51:32.458Z,42.70
2022-11-26T01:53:58.878Z,42.60
2022-11-26T01:56:25.349Z,42.70
2022-11-26T01:58:51.796Z,42.80
2022-11-26T02:01:18.326Z,42.80
2022-11-26T02:03:44.828Z,42.80
2022-11-26T02:06:11.285Z,42.80
2022-11-26T02:08:37.754Z,42.70
2022-11-26T02:11:04.194Z,42.80
2022-11-26T02:13:30.611Z,42.70
2022-11-26T02:15:57.037Z,42.80
2022-11-26T02:18:23.503Z,42.80
2022-11-26T02:20:49.993Z,42.90
2022-11-26T02:23:16.448Z,43.00
2022-11-26T02:25:42.899Z,43.00
2022-11-26T02:28:09.370Z,42.50
2022-11-26T02:30:35.834Z,43.00
2022-11-26T02:33:02.263Z,42.40
2022-11-26T02:35:28.726Z,43.00
2022-11-26T02:37:55.173Z,43.00
2022-11-26T02:40:21.641Z,43.00
2022-11-26T02:42:48.104Z,42.90
2022-11-26T02:45:14.580Z,42.90
2022-11-26T02:47:41.010Z,42.90
2022-11-26T02:50:07.427Z,42.90
2022-11-26T02:52:33.862Z,42.90
2022-11-26T02:55:00.378Z,43.00
2022-11-26T02:57:26.872Z,43.00
2022-11-26T02:59:53.309Z,43.00
2022-11-26T03:02:19.738Z,43.00
2022-11-26T03:04:46.208Z,42.30
2022-11-26T03:07:12.705Z,42.90
2022-11-26T03:09:39.171Z,42.40
2022-11-26T03:12:05.705Z,42.90
2022-11-26T03:14:32.242Z,42.80
2022-11-26T03:16:58.738Z,42.80
2022-11-26T03:19:25.216Z,42.80
2022-11-26T03:21:51.655Z,42.90
2022-11-26T03:24:18.105Z,42.30
2022-11-26T03:26:44.570Z,42.80
2022-11-26T03:29:10.990Z,42.70
2022-11-26T03:31:37.469Z,42.80
2022-11-26T03:34:03.955Z,42.20
2022-11-26T03:36:30.442Z,42.70
2022-11-26T03:38:56.890Z,42.70
2022-11-26T03:41:23.333Z,42.80
2022-11-26T03:43:49.804Z,42.20
2022-11-26T03:46:16.370Z,42.70
2022-11-26T03:48:42.834Z,42.60
2022-11-26T03:51:09.284Z,42.60
2022-11-26T03:53:35.710Z,42.70
2022-11-26T03:56:02.155Z,42.70
2022-11-26T03:58:28.581Z,42.70
2022-11-26T04:00:55.048Z,42.70
2022-11-26T04:03:21.496Z,42.20
2022-11-26T04:05:47.962Z,42.60
2022-11-26T04:08:14.377Z,42.60
2022-11-26T04:10:40.849Z,42.60
2022-11-26T04:13:07.318Z,42.10
2022-11-26T04:15:33.793Z,42.60
2022-11-26T04:18:00.249Z,42.60
2022-11-26T04:20:26.721Z,42.60
2022-11-26T04:22:53.163Z,42.50
2022-11-26T04:25:19.616Z,42.00
2022-11-26T04:27:46.062Z,42.60
2022-11-26T04:30:12.478Z,42.60
2022-11-26T04:32:38.894Z,42.60
2022-11-26T04:35:05.357Z,42.00
2022-11-26T04:37:31.829Z,42.50
2022-11-26T04:39:58.280Z,42.50
2022-11-26T04:42:24.725Z,42.50
2022-11-26T04:44:51.391Z,42.50
2022-11-26T04:47:17.854Z,42.50
2022-11-26T04:49:44.340Z,42.50
2022-11-26T04:52:10.778Z,41.90
2022-11-26T04:54:37.522Z,42.40
2022-11-26T04:57:04.191Z,42.40
2022-11-26T04:59:30.623Z,42.50
2022-11-26T05:01:57.087Z,42.50
2022-11-26T05:04:23.539Z,42.00
2022-11-26T05:06:50.019Z,42.40
2022-11-26T05:09:16.458Z,42.40
2022-11-26T05:11:42.920Z,42.40
2022-11-26T05:14:09.389Z,42.40
2022-11-26T05:16:35.918Z,42.40
2022-11-26T05:19:02.421Z,42.40
2022-11-26T05:21:28.842Z,42.40
2022-11-26T05:23:55.298Z,42.20
2022-11-26T05:26:21.825Z,42.50
2022-11-26T05:28:48.286Z,42.40
2022-11-26T05:31:14.788Z,42.00
2022-11-26T05:33:41.302Z,42.50
2022-11-26T05:36:07.796Z,41.60
2022-11-26T05:38:34.239Z,42.40
2022-11-26T05:41:00.703Z,42.40
2022-11-26T05:43:27.164Z,42.00
2022-11-26T05:45:53.707Z,42.50
2022-11-26T05:48:20.218Z,42.60
2022-11-26T05:50:50.213Z,42.50
2022-11-26T05:53:20.747Z,42.10
2022-11-26T05:55:47.161Z,42.70
2022-11-26T05:58:13.633Z,42.60
2022-11-26T06:00:40.073Z,42.10
2022-11-26T06:03:06.625Z,42.30
2022-11-26T06:05:33.245Z,42.70
2022-11-26T06:07:59.739Z,42.60
2022-11-26T06:10:26.236Z,42.00
2022-11-26T06:12:52.758Z,42.50
2022-11-26T06:15:19.202Z,42.00
2022-11-26T06:17:45.618Z,42.50
2022-11-26T06:20:12.047Z,42.50
2022-11-26T06:22:38.518Z,42.40
2022-11-26T06:25:04.998Z,42.40
2022-11-26T06:27:31.417Z,41.80
2022-11-26T06:29:57.869Z,42.30
2022-11-26T06:32:24.348Z,42.40
2022-11-26T06:34:53.940Z,42.40
2022-11-26T06:37:20.766Z,42.50
2022-11-26T06:39:47.233Z,41.90
2022-11-26T06:42:13.670Z,42.50
2022-11-26T06:44:40.374Z,42.50
2022-11-26T06:47:07.085Z,42.50
2022-11-26T06:49:33.550Z,42.40
2022-11-26T06:52:00.031Z,42.40
2022-11-26T06:54:26.486Z,42.40
2022-11-26T06:56:53.042Z,42.00
2022-11-26T06:59:19.531Z,42.40
2022-11-26T07:01:46.014Z,42.30
2022-11-26T07:04:12.525Z,42.30
2022-11-26T07:06:38.946Z,42.40
2022-11-26T07:09:05.436Z,42.40
2022-11-26T07:11:31.867Z,42.40
2022-11-26T07:13:58.317Z,41.90
2022-11-26T07:16:24.869Z,42.50
2022-11-26T07:18:51.393Z,42.10
2022-11-26T07:21:17.881Z,42.70
2022-11-26T07:23:44.311Z,42.70
2022-11-26T07:26:10.915Z,42.30
2022-11-26T07:28:37.390Z,42.60
2022-11-26T07:31:03.885Z,42.80
2022-11-26T07:33:30.358Z,42.80
2022-11-26T07:35:56.820Z,42.80
2022-11-26T07:38:23.281Z,42.80
2022-11-26T07:40:49.713Z,42.00
2022-11-26T07:43:16.171Z,42.60
2022-11-26T07:45:42.670Z,42.50
2022-11-26T07:48:12.687Z,42.10
2022-11-26T07:50:41.861Z,42.30
2022-11-26T07:53:08.324Z,41.40
2022-11-26T07:55:34.783Z,42.20
2022-11-26T07:58:01.248Z,42.60
2022-11-26T08:00:27.718Z,42.20
2022-11-26T08:02:54.225Z,41.70
2022-11-26T08:05:20.720Z,42.30
2022-11-26T08:07:47.272Z,42.30
2022-11-26T08:10:13.775Z,41.90
2022-11-26T08:12:40.193Z,42.50
2022-11-26T08:15:06.607Z,42.30
2022-11-26T08:17:33.040Z,42.50
2022-11-26T08:19:59.492Z,42.60
2022-11-26T08:22:25.959Z,42.60
2022-11-26T08:24:52.462Z,41.90
2022-11-26T08:27:18.898Z,42.50
2022-11-26T08:29:45.314Z,41.80
2022-11-26T08:32:11.726Z,41.80
2022-11-26T08:34:38.341Z,42.40
2022-11-26T08:37:04.898Z,42.40
2022-11-26T08:39:31.385Z,42.40
2022-11-26T08:41:57.837Z,42.30
2022-11-26T08:44:24.277Z,42.40
2022-11-26T08:46:50.694Z,42.00
2022-11-26T08:49:17.269Z,42.60
2022-11-26T08:51:43.721Z,42.80
2022-11-26T08:54:10.204Z,42.20
2022-11-26T08:56:36.687Z,42.90
2022-11-26T08:59:03.182Z,43.00
2022-11-26T09:01:29.790Z,42.60
2022-11-26T09:03:56.263Z,43.10
2022-11-26T09:06:22.742Z,43.00
2022-11-26T09:08:49.170Z,42.70
2022-11-26T09:11:15.655Z,42.80
2022-11-26T09:13:42.117Z,42.80
2022-11-26T09:16:08.578Z,42.70
2022-11-26T09:18:35.002Z,43.00
2022-11-26T09:21:01.470Z,42.90
2022-11-26T09:23:27.912Z,42.40
2022-11-26T09:25:54.374Z,43.10
2022-11-26T09:28:20.826Z,43.10
2022-11-26T09:30:47.281Z,42.70
2022-11-26T09:33:13.773Z,42.70
2022-11-26T09:35:40.236Z,43.20
2022-11-26T09:38:06.668Z,43.20
2022-11-26T09:40:33.099Z,43.20
2022-11-26T09:42:59.551Z,42.60
2022-11-26T09:45:26.079Z,43.10
2022-11-26T09:47:52.565Z,43.20
2022-11-26T09:50:19.037Z,43.20
2022-11-26T09:52:45.459Z,43.10
2022-11-26T09:55:11.942Z,43.10
2022-11-26T09:57:38.394Z,43.10
2022-11-26T10:00:06.081Z,43.00
2022-11-26T10:02:32.551Z,42.90
2022-11-26T10:04:59.028Z,42.70
2022-11-26T10:07:25.538Z,43.30
2022-11-26T10:09:51.981Z,43.40
2022-11-26T10:12:25.457Z,43.40
2022-11-26T10:14:52.182Z,43.40
2022-11-26T10:17:18.682Z,43.40
2022-11-26T10:19:45.154Z,42.90
2022-11-26T10:22:11.630Z,43.40
2022-11-26T10:24:38.284Z,43.40
2022-11-26T10:27:04.970Z,43.00
2022-11-26T10:29:31.393Z,43.50
2022-11-26T10:31:57.913Z,43.50
2022-11-26T10:34:24.420Z,43.50
2022-11-26T10:36:50.883Z,43.70
2022-11-26T10:39:17.321Z,43.80
2022-11-26T10:41:43.745Z,43.40
2022-11-26T10:44:10.194Z,44.00
2022-11-26T10:46:36.725Z,44.00
2022-11-26T10:49:03.188Z,43.50
2022-11-26T10:51:29.619Z,44.00
2022-11-26T10:53:56.176Z,43.40
2022-11-26T10:56:22.610Z,43.40
2022-11-26T10:58:49.065Z,44.10
2022-11-26T11:01:15.585Z,44.20
2022-11-26T11:04:07.230Z,43.90
2022-11-26T11:06:28.455Z,44.40
2022-11-26T11:08:54.876Z,44.30
2022-11-26T11:11:21.351Z,44.40
2022-11-26T11:13:47.964Z,44.80
2022-11-26T11:16:14.490Z,45.00
2022-11-26T11:18:41.019Z,44.80
2022-11-26T11:21:07.436Z,44.70
2022-11-26T11:24:06.587Z,43.90
2022-11-26T11:26:20.337Z,44.60
2022-11-26T11:28:46.812Z,44.50
2022-11-26T11:31:13.285Z,44.40
2022-11-26T11:33:39.814Z,44.20
2022-11-26T11:36:06.273Z,44.50
2022-11-26T11:38:32.730Z,44.20
2022-11-26T11:40:59.206Z,44.50
2022-11-26T11:43:25.660Z,44.00
2022-11-26T11:45:53.462Z,43.90
2022-11-26T11:48:20.038Z,44.00
2022-11-26T11:50:46.471Z,44.50
2022-11-26T11:53:12.894Z,43.90
2022-11-26T11:55:39.417Z,44.50
2022-11-26T11:58:05.840Z,44.60
2022-11-26T12:00:32.287Z,44.10
2022-11-26T12:02:58.751Z,44.40
2022-11-26T12:05:25.175Z,44.90
2022-11-26T12:07:51.695Z,44.90
2022-11-26T12:10:18.197Z,45.00
2022-11-26T12:12:44.670Z,44.40
2022-11-26T12:15:11.087Z,44.50
2022-11-26T12:17:37.506Z,45.30
2022-11-26T12:20:03.965Z,45.40
2022-11-26T12:22:30.402Z,45.20
2022-11-26T12:24:56.873Z,45.50
2022-11-26T12:27:23.297Z,45.00
2022-11-26T12:29:49.739Z,44.60
2022-11-26T12:32:16.216Z,44.80
2022-11-26T12:34:42.679Z,44.90
2022-11-26T12:37:09.153Z,44.80
2022-11-26T12:39:35.650Z,45.20
2022-11-26T12:42:02.083Z,45.10
2022-11-26T12:44:28.609Z,44.90
2022-11-26T12:46:55.047Z,44.90
2022-11-26T12:49:21.464Z,44.90
2022-11-26T12:51:47.905Z,44.80
2022-11-26T12:54:14.391Z,44.40
2022-11-26T12:56:40.889Z,44.70
2022-11-26T12:59:07.316Z,44.70
2022-11-26T13:01:33.861Z,44.10
2022-11-26T13:04:29.491Z,44.60
2022-11-26T13:06:46.768Z,44.60
2022-11-26T13:09:15.323Z,44.60
2022-11-26T13:11:41.993Z,44.60
2022-11-26T13:14:08.495Z,44.00
2022-11-26T13:16:35.081Z,44.00
2022-11-26T13:19:06.447Z,44.60
2022-11-26T13:21:33.261Z,44.00
2022-11-26T13:26:45.700Z,44.50
2022-11-26T13:29:12.176Z,44.50
2022-11-26T13:31:38.683Z,43.90
2022-11-26T13:34:05.147Z,44.00
2022-11-26T13:36:31.580Z,43.80
2022-11-26T13:38:58.000Z,44.30
2022-11-26T13:41:24.466Z,43.70
2022-11-26T13:43:50.920Z,45.00
2022-11-26T13:46:22.426Z,44.30
2022-11-26T13:48:49.113Z,44.30
2022-11-26T13:51:15.530Z,44.30
2022-11-26T13:53:41.968Z,44.30
2022-11-26T13:56:08.443Z,44.30
2022-11-26T13:58:34.930Z,44.30
2022-11-26T14:01:01.393Z,43.90
2022-11-26T14:03:27.878Z,43.70
2022-11-26T14:05:54.312Z,44.20
2022-11-26T14:08:20.829Z,44.30
2022-11-26T14:10:47.274Z,44.40
2022-11-26T14:13:13.686Z,43.90
2022-11-26T14:15:40.130Z,44.50
2022-11-26T14:18:06.555Z,44.40
2022-11-26T14:20:32.970Z,44.40
2022-11-26T14:23:04.657Z,43.70
2022-11-26T14:25:31.242Z,44.30
2022-11-26T14:27:57.713Z,44.20
2022-11-26T14:30:24.181Z,44.20
2022-11-26T14:32:50.761Z,44.20
2022-11-26T14:35:17.271Z,43.70
2022-11-26T14:37:43.688Z,44.30
2022-11-26T14:40:10.123Z,44.30
2022-11-26T14:42:36.539Z,44.40
2022-11-26T14:45:03.021Z,45.10
2022-11-26T14:47:29.492Z,44.50
2022-11-26T14:49:55.953Z,45.20
2022-11-26T14:52:22.413Z,44.90
2022-11-26T14:54:48.900Z,45.20
2022-11-26T14:57:15.341Z,45.40
2022-11-26T14:59:41.798Z,45.60
2022-11-26T15:02:08.261Z,45.60
2022-11-26T15:04:34.693Z,45.30
2022-11-26T15:07:01.161Z,45.80
2022-11-26T15:09:27.626Z,45.80
2022-11-26T15:11:54.052Z,45.90
2022-11-26T15:14:20.532Z,45.80
2022-11-26T15:16:50.023Z,45.70
2022-11-26T15:19:20.393Z,45.00
2022-11-26T15:21:47.391Z,45.60
2022-11-26T15:24:13.854Z,44.90
2022-11-26T15:26:40.337Z,45.50
2022-11-26T15:29:12.720Z,45.50
2022-11-26T15:31:39.331Z,46.10
2022-11-26T15:34:05.785Z,45.10
2022-11-26T15:36:32.229Z,45.60
2022-11-26T15:38:58.718Z,45.40
2022-11-26T15:41:25.206Z,45.00
2022-11-26T15:43:51.626Z,45.40
2022-11-26T15:46:18.125Z,44.80
2022-11-26T15:48:52.377Z,45.40
2022-11-26T15:51:19.746Z,45.30
2022-11-26T15:53:46.170Z,45.30
2022-11-26T15:56:12.588Z,44.70
2022-11-26T15:58:39.016Z,45.20
2022-11-26T16:01:05.561Z,45.20
2022-11-26T16:03:32.043Z,44.90
2022-11-26T16:05:58.501Z,45.50
2022-11-26T16:08:24.928Z,45.60
2022-11-26T16:10:51.387Z,45.50
2022-11-26T16:13:17.822Z,45.40
2022-11-26T16:15:44.289Z,45.30
2022-11-26T16:18:10.789Z,45.20
2022-11-26T16:20:37.255Z,44.60
2022-11-26T16:23:03.675Z,44.40
2022-11-26T16:25:30.094Z,45.10
2022-11-26T16:27:56.579Z,44.50
2022-11-26T16:30:23.038Z,44.90
2022-11-26T16:32:49.461Z,44.80
2022-11-26T16:35:43.541Z,44.70
2022-11-26T16:38:02.314Z,44.80
2022-11-26T16:40:28.810Z,44.70
2022-11-26T16:42:55.283Z,44.70
2022-11-26T16:45:21.780Z,44.10
2022-11-26T16:47:48.249Z,44.60
2022-11-26T16:50:14.939Z,44.70
2022-11-26T16:52:41.430Z,44.70
2022-11-26T16:55:07.888Z,44.60
2022-11-26T16:57:34.368Z,44.60
2022-11-26T17:00:00.844Z,44.50
2022-11-26T17:02:27.417Z,44.50
2022-11-26T17:04:53.892Z,44.50
2022-11-26T17:07:20.399Z,44.50
2022-11-26T17:09:46.872Z,44.60
2022-11-26T17:12:13.372Z,43.80
2022-11-26T17:14:39.816Z,44.00
2022-11-26T17:17:06.307Z,44.60
2022-11-26T17:19:32.815Z,44.70
2022-11-26T17:21:59.290Z,44.70
2022-11-26T17:24:31.198Z,44.90
2022-11-26T17:26:58.080Z,44.40
2022-11-26T17:29:24.524Z,44.80
2022-11-26T17:31:50.943Z,44.80
2022-11-26T17:34:17.362Z,44.20
2022-11-26T17:36:43.778Z,44.70
2022-11-26T17:39:10.199Z,44.00
2022-11-26T17:41:37.240Z,44.00
2022-11-26T17:44:03.688Z,44.50
2022-11-26T17:46:38.907Z,44.50
2022-11-26T17:49:14.760Z,44.50
2022-11-26T17:51:41.185Z,44.60
2022-11-26T17:54:07.646Z,44.50
2022-11-26T17:56:34.078Z,44.40
2022-11-26T17:59:00.543Z,44.60
2022-11-26T18:01:27.076Z,44.50
2022-11-26T18:03:53.526Z,44.40
2022-11-26T18:06:19.945Z,44.40
2022-11-26T18:08:46.402Z,44.30
2022-11-26T18:11:12.863Z,44.50
2022-11-26T18:13:39.316Z,44.60
2022-11-26T18:16:05.729Z,44.60
2022-11-26T18:18:32.206Z,44.70
2022-11-26T18:20:58.698Z,44.60
2022-11-26T18:23:25.142Z,44.40
2022-11-26T18:25:51.626Z,44.50
2022-11-26T18:28:18.094Z,44.30
2022-11-26T18:30:44.564Z,44.00
2022-11-26T18:33:11.060Z,44.20
2022-11-26T18:35:37.505Z,44.30
2022-11-26T18:38:03.955Z,44.30
2022-11-26T18:40:30.470Z,44.70
2022-11-26T18:42:56.901Z,43.80
2022-11-26T18:45:23.390Z,44.50
2022-11-26T18:47:49.814Z,43.90
2022-11-26T18:50:16.302Z,44.50
2022-11-26T18:52:42.749Z,44.50
2022-11-26T18:55:09.167Z,44.10
2022-11-26T18:57:35.628Z,44.60
2022-11-26T19:00:02.146Z,44.50
2022-11-26T19:02:28.678Z,44.50
2022-11-26T19:04:55.157Z,44.00
2022-11-26T19:07:21.717Z,44.50
2022-11-26T19:09:48.205Z,44.50
2022-11-26T19:12:14.658Z,44.00
2022-11-26T19:14:41.075Z,44.00
2022-11-26T19:17:07.598Z,44.50
2022-11-26T19:19:34.102Z,44.50
2022-11-26T19:22:01.596Z,44.50
2022-11-26T19:24:28.310Z,43.90
2022-11-26T19:26:54.738Z,44.50
2022-11-26T19:29:21.415Z,44.40
2022-11-26T19:31:47.846Z,44.50
2022-11-26T19:34:14.332Z,44.50
2022-11-26T19:36:40.751Z,44.60
2022-11-26T19:39:07.189Z,44.50
2022-11-26T19:41:33.667Z,44.40
2022-11-26T19:44:00.103Z,44.50
2022-11-26T19:46:26.566Z,44.40
2022-11-26T19:48:53.040Z,44.20
2022-11-26T19:51:19.499Z,44.30
2022-11-26T19:53:45.956Z,44.20
2022-11-26T19:56:12.384Z,43.80
2022-11-26T19:58:38.803Z,44.30
2022-11-26T20:01:05.344Z,43.90
2022-11-26T20:03:37.068Z,44.50
2022-11-26T20:06:03.904Z,44.70
2022-11-26T20:08:30.322Z,44.80
2022-11-26T20:10:56.981Z,45.00
2022-11-26T20:13:23.410Z,44.60
2022-11-26T20:15:49.873Z,45.00
2022-11-26T20:18:16.346Z,45.00
2022-11-26T20:20:42.828Z,44.30
2022-11-26T20:23:09.293Z,43.90
2022-11-26T20:25:35.782Z,44.10
2022-11-26T20:28:02.244Z,44.60
2022-11-26T20:30:28.781Z,44.50
2022-11-26T20:32:55.292Z,44.30
2022-11-26T20:35:21.777Z,44.30
2022-11-26T20:37:48.269Z,44.10
2022-11-26T20:40:14.738Z,44.00
2022-11-26T20:42:41.175Z,44.00
2022-11-26T20:45:07.586Z,43.90
2022-11-26T20:47:34.056Z,43.90
2022-11-26T20:50:00.497Z,43.80
2022-11-26T20:52:26.981Z,43.20
2022-11-26T20:54:53.993Z,43.80
2022-11-26T20:57:20.613Z,43.70
2022-11-26T20:59:47.045Z,43.70
2022-11-26T21:02:13.587Z,43.60
2022-11-26T21:04:40.014Z,42.80
2022-11-26T21:07:06.489Z,43.50
2022-11-26T21:09:32.918Z,43.40
2022-11-26T21:11:59.369Z,43.40
2022-11-26T21:14:25.887Z,42.70
2022-11-26T21:16:52.361Z,43.30
2022-11-26T21:19:18.947Z,43.20
2022-11-26T21:21:45.451Z,43.20
2022-11-26T21:24:11.880Z,43.00
2022-11-26T21:26:38.314Z,43.20
2022-11-26T21:29:04.769Z,42.50
2022-11-26T21:31:31.249Z,42.90
2022-11-26T21:33:57.678Z,43.00
2022-11-26T21:36:24.162Z,43.00
2022-11-26T21:38:50.620Z,43.00
2022-11-26T21:41:17.044Z,42.90
2022-11-26T21:43:43.466Z,42.50
2022-11-26T21:46:09.969Z,42.50
2022-11-26T21:48:36.488Z,42.90
2022-11-26T21:51:02.917Z,42.80
2022-11-26T21:53:29.356Z,42.90
2022-11-26T21:55:55.772Z,42.70
2022-11-26T21:58:22.209Z,42.70
2022-11-26T22:00:48.626Z,42.70
2022-11-26T22:03:15.130Z,42.40
2022-11-26T22:05:41.555Z,42.50
2022-11-26T22:08:08.083Z,42.80
2022-11-26T22:10:36.202Z,42.60
2022-11-26T22:13:02.803Z,41.90
2022-11-26T22:15:29.265Z,42.70
2022-11-26T22:17:55.718Z,42.00
2022-11-26T22:20:22.209Z,42.30
2022-11-26T22:22:48.697Z,43.00
2022-11-26T22:25:15.157Z,42.80
2022-11-26T22:27:41.624Z,42.70
2022-11-26T22:30:08.101Z,42.70
2022-11-26T22:32:34.578Z,42.20
2022-11-26T22:35:01.035Z,42.70
2022-11-26T22:37:29.375Z,42.70
2022-11-26T22:39:55.834Z,42.70
2022-11-26T22:42:22.279Z,42.90
2022-11-26T22:44:48.706Z,42.60
2022-11-26T22:47:15.189Z,42.60
2022-11-26T22:49:41.828Z,42.20
2022-11-26T22:52:08.483Z,42.60
2022-11-26T22:54:34.902Z,42.70
2022-11-26T22:57:01.356Z,42.60
2022-11-26T22:59:27.780Z,42.50
2022-11-26T23:01:54.260Z,42.20
2022-11-26T23:04:20.681Z,42.10
2022-11-26T23:06:47.146Z,42.70
2022-11-26T23:09:13.663Z,42.60
2022-11-26T23:11:40.154Z,42.60
2022-11-26T23:14:06.624Z,41.90
2022-11-26T23:16:33.164Z,42.60
2022-11-26T23:18:59.642Z,42.60
2022-11-26T23:21:26.088Z,42.50
2022-11-26T23:23:52.551Z,41.90
2022-11-26T23:26:24.880Z,42.50
2022-11-26T23:28:53.146Z,42.40
2022-11-26T23:31:19.652Z,42.50
2022-11-26T23:33:46.180Z,42.40
2022-11-26T23:36:12.641Z,42.50
2022-11-26T23:38:39.122Z,42.50
2022-11-26T23:41:05.581Z,42.40
2022-11-26T23:43:32.069Z,42.40
2022-11-26T23:45:58.564Z,42.50
2022-11-26T23:48:25.058Z,42.50
2022-11-26T23:50:51.503Z,42.40
2022-11-26T23:53:17.961Z,41.80
2022-11-26T23:55:44.446Z,42.30
2022-11-26T23:58:10.858Z,42.40
